METAR Data
IDs: Format: Raw Decoded Include TAF

Data at: 1220 UTC 07 Jul 2020

KPVE 071215Z AUTO 00000KT 10SM CLR 23/21 A2999 RMK A01
KPVE 071155Z AUTO 00000KT 10SM CLR 22/21 A2999 RMK A01
KPVE 071135Z AUTO 00000KT 9SM CLR 21/20 A2999 RMK A01
KPVE 071115Z AUTO 00000KT 8SM CLR 20/19 A2998 RMK A01
KPVE 071055Z AUTO 00000KT 9SM CLR 20/19 A2997 RMK A01
KPVE 071035Z AUTO 00000KT 10SM SCT055 20/19 A2996 RMK A01
KPVE 071015Z AUTO 00000KT 8SM OVC050 20/19 A2996 RMK A01
KPVE 070955Z AUTO 00000KT 8SM BKN050 20/19 A2996 RMK A01
KPVE 070935Z AUTO 00000KT 10SM FEW050 20/19 A2996 RMK A01
KPVE 070915Z AUTO 00000KT 10SM CLR 20/19 A2996 RMK A01
KPVE 070855Z AUTO 00000KT 10SM CLR 20/19 A2995 RMK A01
KPVE 070835Z AUTO 00000KT 10SM CLR 20/19 A2995 RMK A01
KPVE 070815Z AUTO 00000KT 10SM CLR 20/19 A2995 RMK A01
KPVE 070755Z AUTO 00000KT 10SM CLR 20/19 A2995 RMK A01
KPVE 070735Z AUTO 00000KT 10SM CLR 20/19 A2995 RMK A01
KPVE 070715Z AUTO 00000KT 10SM CLR 20/19 A2995 RMK A01
KPVE 070655Z AUTO 00000KT 10SM FEW040 FEW049 20/19 A2996 RMK A01
KPVE 070635Z AUTO 00000KT 10SM CLR 21/19 A2996 RMK A01
KPVE 070615Z AUTO 00000KT 10SM FEW030 FEW036 21/20 A2997 RMK A01
KPVE 070555Z AUTO 00000KT 10SM FEW028 FEW036 FEW042 21/19 A2997 RMK A01
KPVE 070535Z AUTO 02004KT 10SM FEW036 SCT042 21/20 A2998 RMK A01
KPVE 070515Z AUTO 00000KT 10SM SCT037 22/20 A2999 RMK A01
KPVE 070455Z AUTO 00000KT 10SM FEW039 SCT045 22/20 A2999 RMK A01
KPVE 070435Z AUTO 00000KT 10SM FEW039 SCT045 22/20 A2999 RMK A01
KPVE 070415Z AUTO 00000KT 10SM CLR 22/20 A2999 RMK A01
KPVE 070355Z AUTO 00000KT 10SM FEW036 FEW043 23/20 A2998 RMK A01
KPVE 070335Z AUTO 02004KT 10SM FEW035 SCT045 24/20 A2998 RMK A01
KPVE 070315Z AUTO 02004KT 10SM FEW045 24/20 A2997 RMK A01
KPVE 070255Z AUTO 03005KT 10SM FEW044 25/21 A2997 RMK A01
KPVE 070235Z AUTO 01004KT 10SM CLR 25/22 A2997 RMK A01
KPVE 070215Z AUTO 33005KT 10SM CLR 25/23 A2996 RMK A01
KPVE 070155Z AUTO 04003KT 10SM CLR 24/23 A2996 RMK A01
KPVE 070135Z AUTO 00000KT 10SM CLR 25/23 A2996 RMK A01
KPVE 070115Z AUTO 00000KT 10SM CLR 26/24 A2995 RMK A01
KPVE 070055Z AUTO 00000KT 10SM CLR 26/23 A2995 RMK A01
KPVE 070035Z AUTO 00000KT 10SM CLR 26/24 A2994 RMK A01
KPVE 070015Z AUTO 00000KT 10SM CLR 27/23 A2995 RMK A01
KPVE 062355Z AUTO 00000KT 10SM CLR 27/23 A2994 RMK A01
KPVE 062335Z AUTO 01004KT 10SM CLR 28/23 A2993 RMK A01
KPVE 062315Z AUTO 03006KT 10SM SCT050 29/23 A2992 RMK A01
KPVE 062255Z AUTO 00000KT 10SM SCT050 BKN085 29/25 A2993 RMK A01
KPVE 062235Z AUTO 00000KT 10SM FEW039 SCT047 BKN085 31/23 A2993 RMK A01
KPVE 062215Z AUTO 13003KT 10SM BKN040 BKN048 BKN055 31/23 A2994 RMK A01
KPVE 062155Z AUTO 00000KT 10SM FEW038 32/23 A2994 RMK A01
KPVE 062135Z AUTO 00000KT 10SM FEW038 32/22 A2994 RMK A01
KPVE 062115Z AUTO 00000KT 10SM CLR 32/23 A2994 RMK A01
KPVE 062055Z AUTO 00000KT 10SM CLR 32/23 A2994 RMK A01
KPVE 062035Z AUTO 15004KT 10SM CLR 32/22 A2995 RMK A01
KPVE 062015Z AUTO VRB03KT 10SM CLR 31/23 A2996 RMK A01
KPVE 061955Z AUTO 00000KT 10SM CLR 31/22 A2997 RMK A01
KPVE 061935Z AUTO 08003KT 10SM CLR 30/23 A2997 RMK A01
KPVE 061915Z AUTO 00000KT 10SM CLR 31/23 A2997 RMK A01
KPVE 061855Z AUTO 00000KT 10SM CLR 31/23 A2997 RMK A01
KPVE 061835Z AUTO 00000KT 10SM CLR 30/22 A2998 RMK A01
KPVE 061815Z AUTO 00000KT 10SM CLR 30/23 A2998 RMK A01
KPVE 061755Z AUTO 06004KT 10SM CLR 30/23 A2999 RMK A01
KPVE 061735Z AUTO 07004KT 10SM CLR 30/23 A2999 RMK A01
KPVE 061715Z AUTO VRB04KT 10SM CLR 30/23 A2999 RMK A01
KPVE 061655Z AUTO 08003KT 10SM CLR 29/23 A3000 RMK A01
KPVE 061635Z AUTO 04004KT 10SM CLR 29/23 A3000 RMK A01
KPVE 061615Z AUTO 00000KT 10SM CLR 29/23 A3000 RMK A01
KPVE 061555Z AUTO 00000KT 10SM CLR 28/23 A3000 RMK A01
KPVE 061535Z AUTO VRB05KT 10SM CLR 27/22 A3000 RMK A01
KPVE 061515Z AUTO 00000KT 10SM CLR 27/23 A3000 RMK A01
KPVE 061455Z AUTO 00000KT 10SM CLR 26/22 A3000 RMK A01
KPVE 061435Z AUTO VRB03KT 10SM CLR 26/22 A3000 RMK A01
KPVE 061415Z AUTO 07004KT 10SM CLR 25/22 A3000 RMK A01
KPVE 061355Z AUTO 07006KT 10SM FEW080 25/21 A3001 RMK A01
KPVE 061335Z AUTO 05005KT 10SM FEW085 25/21 A3000 RMK A01
KPVE 061315Z AUTO 04005KT 10SM CLR 24/21 A3000 RMK A01
KPVE 061255Z AUTO VRB03KT 10SM CLR 24/21 A3000 RMK A01
KPVE 061235Z AUTO 00000KT 10SM CLR 24/21 A2999 RMK A01
KPVE 061215Z AUTO 04003KT 10SM CLR 22/20 A2999 RMK A01
KPVE 061155Z AUTO VRB04KT 10SM CLR 21/20 A2999 RMK A01
KPVE 061135Z AUTO 00000KT 10SM CLR 21/20 A2998 RMK A01
KPVE 061115Z AUTO 00000KT 10SM CLR 21/20 A2997 RMK A01
KPVE 061055Z AUTO 00000KT 21/20 A2997 RMK A01
KPVE 061035Z AUTO 00000KT 10SM CLR 21/20 A2996 RMK A01
KPVE 061015Z AUTO 03005KT 10SM CLR 21/20 A2996 RMK A01
KPVE 060955Z AUTO 05003KT 10SM CLR 21/20 A2996 RMK A01
KPVE 060935Z AUTO 00000KT 9SM CLR 21/20 A2995 RMK A01
KPVE 060915Z AUTO 00000KT 10SM CLR 21/20 A2995 RMK A01
KPVE 060855Z AUTO 00000KT 10SM CLR 21/20 A2995 RMK A01
KPVE 060835Z AUTO 00000KT 10SM CLR 21/20 A2994 RMK A01
KPVE 060815Z AUTO 00000KT 10SM CLR 21/20 A2993 RMK A01
KPVE 060755Z AUTO 00000KT 10SM CLR 21/20 A2992 RMK A01
KPVE 060735Z AUTO 00000KT 10SM CLR 21/20 A2992 RMK A01
KPVE 060715Z AUTO 00000KT 10SM CLR 21/21 A2992 RMK A01
KPVE 060655Z AUTO 00000KT 9SM CLR 21/21 A2992 RMK A01
KPVE 060635Z AUTO 00000KT 10SM CLR 22/21 A2993 RMK A01
KPVE 060615Z AUTO 36003KT 10SM CLR 21/21 A2993 RMK A01
KPVE 060555Z AUTO 00000KT 10SM FEW050 22/21 A2993 RMK A01
KPVE 060535Z AUTO 00000KT 10SM FEW050 22/21 A2994 RMK A01
KPVE 060515Z AUTO 00000KT 10SM CLR 22/21 A2995 RMK A01
KPVE 060455Z AUTO 00000KT 10SM CLR 22/21 A2994 RMK A01
KPVE 060435Z AUTO 07003KT 10SM CLR 22/21 A2994 RMK A01
KPVE 060415Z AUTO 00000KT 10SM CLR 22/21 A2993 RMK A01
KPVE 060355Z AUTO 00000KT 10SM CLR 23/21 A2993 RMK A01
KPVE 060335Z AUTO 00000KT 10SM CLR 23/21 A2995 RMK A01
KPVE 060315Z AUTO 21004KT 10SM CLR 23/22 A2993 RMK A01
KPVE 060255Z AUTO 20003KT 10SM CLR 23/21 A2993 RMK A01
KPVE 060235Z AUTO 07003KT 10SM CLR 24/21 A2995 RMK A01
KPVE 060215Z AUTO 35003KT 10SM CLR 24/22 A2993 RMK A01
KPVE 060155Z AUTO 00000KT 10SM CLR 25/21 A2994 RMK A01
KPVE 060135Z AUTO VRB04KT 10SM FEW026 SCT039 BKN095 25/21 A2995 RMK A01
KPVE 060115Z AUTO 15005KT 10SM FEW039 BKN095 OVC120 25/22 A2995 RMK A01
KPVE 060055Z AUTO 00000KT 10SM OVC100 26/22 A2992 RMK A01
KPVE 060035Z AUTO 00000KT 10SM OVC100 26/22 A2992 RMK A01